Athens, Vermont
Current Conditions -  °F | °C
As of 9:42 AM on Thursday 23 Oct 2014 (Local Time) from KVSF Reporting Station
Moderate Rain Moderate Rain  
Wind Chill: 42°   Ceiling: 1700
Heat Index: 46°   Visibility: 1.7mi
Dew Point: 43°   Wind: 8mph
Humidity: 89%   Direction: 10°N
Pressure: 29.84"   Gusts: 16mph
Location:  43.2811°N, 72.6352°W
Report Text: KVSF 231342Z AUTO 01007G14KT 1 3/4SM RA BR OVC017 08/06 A2984 RMK AO2 P0003 T00780061
Loading
Personal Weather Stations






























Interactive Weather Map
Tropical Storm Tracking
New forecast layout! Learn more

10-Day Weather Forecast

Advertisements
Track Severe Weather on mobile